createdAt,value
2022-09-28T00:04:02.955Z,96121.63
2022-09-28T00:09:04.785Z,96116.84
2022-09-28T00:14:07.365Z,96116.38
2022-09-28T00:19:08.959Z,96109.16
2022-09-28T00:24:13.237Z,96103.63
2022-09-28T00:29:26.911Z,96100.69
2022-09-28T00:34:31.685Z,96099.66
2022-09-28T00:39:33.135Z,96090.81
2022-09-28T00:44:37.442Z,96089.44
2022-09-28T00:49:47.622Z,96084.22
2022-09-28T00:54:50.669Z,96078.59
2022-09-28T00:59:52.617Z,96085.28
2022-09-28T01:04:54.232Z,96073.91
2022-09-28T01:09:56.241Z,96076.00
2022-09-28T01:14:58.244Z,96069.03
2022-09-28T01:19:59.849Z,96071.47
2022-09-28T01:25:07.586Z,96070.19
2022-09-28T01:30:10.425Z,96064.03
2022-09-28T01:35:18.383Z,96051.75
2022-09-28T01:40:22.074Z,96049.88
2022-09-28T01:45:27.100Z,96044.06
2022-09-28T01:50:29.938Z,96048.16
2022-09-28T01:55:33.996Z,96046.03
2022-09-28T02:00:39.464Z,96045.03
2022-09-28T02:05:42.494Z,96038.44
2022-09-28T02:11:04.398Z,96037.97
2022-09-28T02:16:41.634Z,96037.38
2022-09-28T02:21:55.245Z,96031.69
2022-09-28T02:26:58.891Z,96037.22
2022-09-28T02:32:05.560Z,96029.22
2022-09-28T02:37:07.746Z,96021.00
2022-09-28T02:42:23.421Z,96019.56
2022-09-28T02:47:30.919Z,96011.56
2022-09-28T02:52:51.486Z,96017.97
2022-09-28T02:57:58.781Z,96009.34
2022-09-28T03:03:06.402Z,95995.41
2022-09-28T03:08:15.965Z,95998.69
2022-09-28T03:13:17.893Z,95997.06
2022-09-28T03:18:19.212Z,95998.91
2022-09-28T03:23:24.652Z,95990.53
2022-09-28T03:28:26.969Z,95991.00
2022-09-28T03:33:28.498Z,95994.50
2022-09-28T03:38:29.859Z,96001.22
2022-09-28T03:43:31.443Z,96004.81
2022-09-28T03:48:35.725Z,96000.00
2022-09-28T03:53:37.470Z,96001.72
2022-09-28T03:58:38.895Z,95981.03
2022-09-28T04:03:40.810Z,95975.81
2022-09-28T04:08:43.200Z,95957.22
2022-09-28T04:13:47.803Z,95947.94
2022-09-28T04:18:49.140Z,95948.72
2022-09-28T04:24:08.886Z,95947.13
2022-09-28T04:29:17.127Z,95943.84
2022-09-28T04:34:23.201Z,95940.63
2022-09-28T04:39:24.660Z,95925.66
2022-09-28T04:44:28.649Z,95915.19
2022-09-28T04:49:36.904Z,95911.13
2022-09-28T04:54:43.462Z,95891.84
2022-09-28T04:59:45.617Z,95902.53
2022-09-28T05:04:46.995Z,95897.19
2022-09-28T05:10:07.347Z,95889.88
2022-09-28T05:15:09.766Z,95886.63
2022-09-28T05:20:11.714Z,95889.53
2022-09-28T05:25:13.205Z,95894.41
2022-09-28T05:30:49.870Z,95884.53
2022-09-28T05:36:03.541Z,95868.03
2022-09-28T05:41:06.696Z,95871.63
2022-09-28T05:46:08.307Z,95861.03
2022-09-28T05:51:12.849Z,95855.78
2022-09-28T05:56:14.114Z,95849.16
2022-09-28T06:01:18.732Z,95835.06
2022-09-28T06:06:20.967Z,95814.88
2022-09-28T06:11:26.863Z,95812.03
2022-09-28T06:16:29.519Z,95810.50
2022-09-28T06:21:30.888Z,95804.19
2022-09-28T06:26:32.378Z,95802.44
2022-09-28T06:31:33.946Z,95805.75
2022-09-28T06:36:36.393Z,95808.28
2022-09-28T06:41:37.898Z,95792.66
2022-09-28T06:46:48.467Z,95806.66
2022-09-28T06:52:04.526Z,95802.47
2022-09-28T06:57:25.773Z,95808.38
2022-09-28T07:02:27.451Z,95809.53
2022-09-28T07:07:48.821Z,95807.75
2022-09-28T07:12:56.989Z,95820.38
2022-09-28T07:18:05.454Z,95821.75
2022-09-28T07:23:18.647Z,95835.94
2022-09-28T07:28:59.181Z,95828.72
2022-09-28T07:34:13.024Z,95812.75
2022-09-28T07:39:54.547Z,95816.34
2022-09-28T07:44:56.804Z,95830.75
2022-09-28T07:49:58.473Z,95820.84
2022-09-28T07:55:18.618Z,95822.22
2022-09-28T08:00:34.380Z,95822.06
2022-09-28T08:05:36.712Z,95835.25
2022-09-28T08:10:38.263Z,95832.56
2022-09-28T08:16:01.829Z,95837.31
2022-09-28T08:21:33.061Z,95837.31
2022-09-28T08:26:34.409Z,95839.34
2022-09-28T08:31:36.229Z,95842.19
2022-09-28T08:36:45.760Z,95851.91
2022-09-28T08:42:39.662Z,95845.44
2022-09-28T08:48:19.346Z,95840.09
2022-09-28T08:53:43.491Z,95843.34
2022-09-28T08:59:12.022Z,95840.97
2022-09-28T09:04:14.963Z,95842.84
2022-09-28T09:09:54.078Z,95836.34
2022-09-28T09:15:15.230Z,95829.88
2022-09-28T09:20:25.221Z,95819.75
2022-09-28T09:25:43.027Z,95824.34
2022-09-28T09:30:55.803Z,95816.09
2022-09-28T09:36:09.181Z,95812.34
2022-09-28T09:41:46.289Z,95802.03
2022-09-28T09:47:11.309Z,95800.69
2022-09-28T09:52:29.540Z,95809.59
2022-09-28T09:57:51.185Z,95801.06
2022-09-28T10:03:23.543Z,95803.44
2022-09-28T10:08:28.078Z,95788.28
2022-09-28T10:13:32.071Z,95790.06
2022-09-28T10:18:37.553Z,95788.00
2022-09-28T10:23:44.783Z,95797.34
2022-09-28T10:28:54.065Z,95789.81
2022-09-28T10:33:57.519Z,95775.28
2022-09-28T10:38:58.976Z,95764.97
2022-09-28T10:44:07.234Z,95777.47
2022-09-28T10:49:24.923Z,95763.22
2022-09-28T10:54:31.721Z,95769.38
2022-09-28T10:59:39.354Z,95788.19
2022-09-28T11:05:01.269Z,95806.94
2022-09-28T11:10:18.371Z,95797.72
2022-09-28T11:15:21.350Z,95784.56
2022-09-28T11:20:27.929Z,95788.72
2022-09-28T11:25:32.678Z,95787.81
2022-09-28T11:30:42.939Z,95792.94
2022-09-28T11:36:05.878Z,95784.94
2022-09-28T11:41:26.421Z,95794.84
2022-09-28T11:46:35.442Z,95797.16
2022-09-28T11:51:43.636Z,95802.09
2022-09-28T11:56:47.553Z,95810.56
2022-09-28T12:01:51.593Z,95819.97
2022-09-28T12:07:32.746Z,95812.50
2022-09-28T12:12:40.174Z,95829.50
2022-09-28T12:17:54.075Z,95838.78
2022-09-28T12:23:11.813Z,95829.50
2022-09-28T12:28:21.853Z,95838.00
2022-09-28T12:33:23.166Z,95840.56
2022-09-28T12:38:27.580Z,95844.63
2022-09-28T12:43:33.273Z,95852.09
2022-09-28T12:50:07.286Z,95855.50
2022-09-28T12:54:43.737Z,95865.72
2022-09-28T13:00:01.878Z,95863.94
2022-09-28T13:05:22.041Z,95868.31
2022-09-28T13:10:32.544Z,95869.44
2022-09-28T13:15:34.928Z,95873.84
2022-09-28T13:20:36.708Z,95881.47
2022-09-28T13:25:40.815Z,95889.56
2022-09-28T13:30:43.939Z,95890.09
2022-09-28T13:35:45.434Z,95899.00
2022-09-28T13:41:04.947Z,95906.09
2022-09-28T13:46:21.183Z,95915.22
2022-09-28T13:51:39.297Z,95910.19
2022-09-28T13:56:44.085Z,95921.88
2022-09-28T14:01:52.594Z,95925.28
2022-09-28T14:06:57.027Z,95928.94
2022-09-28T14:11:59.754Z,95934.66
2022-09-28T14:17:27.601Z,95948.09
2022-09-28T14:22:40.521Z,95972.78
2022-09-28T14:27:55.547Z,95957.50
2022-09-28T14:32:58.506Z,95967.06
2022-09-28T14:38:42.609Z,95970.69
2022-09-28T14:43:44.274Z,95976.97
2022-09-28T14:48:53.181Z,95974.16
2022-09-28T14:53:56.281Z,95979.34
2022-09-28T14:58:58.014Z,95980.25
2022-09-28T15:04:04.355Z,95986.28
2022-09-28T15:09:05.714Z,95987.03
2022-09-28T15:14:10.954Z,95992.38
2022-09-28T15:19:24.325Z,95993.81
2022-09-28T15:24:27.674Z,95997.81
2022-09-28T15:29:33.186Z,96006.91
2022-09-28T15:34:54.624Z,96004.38
2022-09-28T15:39:57.986Z,96013.09
2022-09-28T15:45:24.735Z,96019.03
2022-09-28T15:50:28.132Z,96028.34
2022-09-28T15:55:42.270Z,96033.47
2022-09-28T16:00:45.199Z,96030.06
2022-09-28T16:05:58.690Z,96045.91
2022-09-28T16:11:03.337Z,96051.25
2022-09-28T16:16:04.797Z,96052.66
2022-09-28T16:21:24.416Z,96059.94
2022-09-28T16:26:32.025Z,96066.91
2022-09-28T16:31:34.353Z,96077.97
2022-09-28T16:36:42.590Z,96078.78
2022-09-28T16:41:48.174Z,96085.28
2022-09-28T16:46:50.860Z,96096.19
2022-09-28T16:51:52.549Z,96099.56
2022-09-28T16:56:53.859Z,96094.75
2022-09-28T17:01:56.521Z,96102.31
2022-09-28T17:06:58.264Z,96108.63
2022-09-28T17:11:59.662Z,96104.41
2022-09-28T17:17:08.901Z,96108.47
2022-09-28T17:22:11.087Z,96115.47
2022-09-28T17:27:16.488Z,96120.00
2022-09-28T17:32:18.661Z,96135.25
2022-09-28T17:37:19.969Z,96132.81
2022-09-28T17:42:21.297Z,96137.84
2022-09-28T17:47:22.740Z,96144.09
2022-09-28T17:52:24.300Z,96145.88
2022-09-28T17:57:25.745Z,96154.03
2022-09-28T18:02:27.045Z,96151.72
2022-09-28T18:07:30.876Z,96152.06
2022-09-28T18:12:32.462Z,96155.91
2022-09-28T18:17:33.824Z,96160.94
2022-09-28T18:22:35.151Z,96168.84
2022-09-28T18:27:36.708Z,96156.97
2022-09-28T18:32:38.426Z,96168.75
2022-09-28T18:37:40.334Z,96176.25
2022-09-28T18:42:42.137Z,96170.91
2022-09-28T18:47:43.459Z,96174.31
2022-09-28T18:52:45.012Z,96185.59
2022-09-28T18:57:46.924Z,96184.06
2022-09-28T19:02:48.431Z,96185.81
2022-09-28T19:07:49.910Z,96187.56
2022-09-28T19:12:51.991Z,96190.34
2022-09-28T19:17:53.339Z,96188.25
2022-09-28T19:22:55.080Z,96178.91
2022-09-28T19:27:56.445Z,96186.91
2022-09-28T19:32:57.787Z,96188.28
2022-09-28T19:37:59.139Z,96183.38
2022-09-28T19:43:00.483Z,96183.84
2022-09-28T19:48:03.036Z,96185.91
2022-09-28T19:53:06.604Z,96193.34
2022-09-28T19:58:08.722Z,96194.81
2022-09-28T20:03:10.051Z,96200.59
2022-09-28T20:08:12.096Z,96202.91
2022-09-28T20:13:13.431Z,96202.09
2022-09-28T20:18:14.952Z,96215.69
2022-09-28T20:23:16.370Z,96215.69
2022-09-28T20:28:17.720Z,96217.31
2022-09-28T20:33:28.267Z,96227.63
2022-09-28T20:38:30.171Z,96235.28
2022-09-28T20:43:31.486Z,96237.34
2022-09-28T20:48:32.878Z,96233.97
2022-09-28T20:53:34.168Z,96246.44
2022-09-28T20:58:37.930Z,96249.84
2022-09-28T21:03:39.474Z,96257.31
2022-09-28T21:08:41.151Z,96262.72
2022-09-28T21:13:43.281Z,96270.78
2022-09-28T21:18:44.857Z,96264.47
2022-09-28T21:23:46.353Z,96271.50
2022-09-28T21:28:47.817Z,96274.63
2022-09-28T21:33:49.681Z,96281.00
2022-09-28T21:38:50.960Z,96279.56
2022-09-28T21:43:52.293Z,96284.53
2022-09-28T21:48:53.740Z,96285.59
2022-09-28T21:53:55.273Z,96288.88
2022-09-28T21:58:56.571Z,96283.19
2022-09-28T22:03:58.017Z,96284.44
2022-09-28T22:08:59.288Z,96282.19
2022-09-28T22:14:00.558Z,96279.16
2022-09-28T22:19:01.832Z,96279.38
2022-09-28T22:24:04.459Z,96283.31
2022-09-28T22:29:07.453Z,96285.72
2022-09-28T22:34:09.181Z,96289.38
2022-09-28T22:39:10.458Z,96290.38
2022-09-28T22:44:11.798Z,96295.03
2022-09-28T22:49:13.217Z,96291.72
2022-09-28T22:54:16.305Z,96302.78
2022-09-28T22:59:17.718Z,96304.63
2022-09-28T23:04:19.034Z,96305.69
2022-09-28T23:09:20.806Z,96314.69
2022-09-28T23:14:22.658Z,96320.25
2022-09-28T23:19:23.934Z,96323.75
2022-09-28T23:24:25.242Z,96311.66
2022-09-28T23:29:26.977Z,96316.38
2022-09-28T23:34:28.256Z,96316.81
2022-09-28T23:39:29.519Z,96321.19
2022-09-28T23:44:33.944Z,96314.69
2022-09-28T23:49:35.249Z,96324.78
2022-09-28T23:54:36.525Z,96325.59
2022-09-28T23:59:37.817Z,96327.22
